Time;durP1;ratioP1;P1;durP2;ratioP2;P2;SDS_P1;SDS_P2;PMS_P1;PMS_P2;Temp;Humidity;BMP_temperature;BMP_pressure;BME280_temperature;BME280_humidity;BME280_pressure;Samples;Min_cycle;Max_cycle;Signal;HPM_P1;HPM_P2
2021/10/12 00:01:16;;;;;;;27.05;20.13;;;;;;;;;;5080992;28;20016;-87
2021/10/12 00:03:42;;;;;;;30.02;21.48;;;;;;;;;;5081227;28;20021;-87
2021/10/12 00:06:09;;;;;;;28.38;20.73;;;;;;;;;;5079961;28;20024;-88
2021/10/12 00:08:35;;;;;;;26.27;19.10;;;;;;;;;;5080112;28;20024;-88
2021/10/12 00:11:01;;;;;;;26.33;20.08;;;;;;;;;;5080137;28;20033;-88
2021/10/12 00:13:28;;;;;;;23.80;18.17;;;;;;;;;;5081112;28;20032;-88
2021/10/12 00:15:54;;;;;;;30.55;19.73;;;;;;;;;;5081048;28;20048;-88
2021/10/12 00:18:20;;;;;;;24.98;18.45;;;;;;;;;;5080870;28;20024;-87
2021/10/12 00:20:46;;;;;;;24.90;18.58;;;;;;;;;;5079782;28;20067;-87
2021/10/12 00:23:12;;;;;;;26.17;18.92;;;;;;;;;;5079691;28;20429;-87
2021/10/12 00:25:38;;;;;;;26.42;19.92;;;;;;;;;;5080510;28;20023;-88
2021/10/12 00:28:04;;;;;;;24.02;18.40;;;;;;;;;;5079378;28;20083;-87
2021/10/12 00:30:30;;;;;;;24.92;19.23;;;;;;;;;;5080550;28;20112;-86
2021/10/12 00:32:56;;;;;;;24.95;19.75;;;;;;;;;;5079699;28;20115;-86
2021/10/12 00:35:22;;;;;;;28.40;20.70;;;;;;;;;;5080687;28;20051;-88
2021/10/12 00:38:26;;;;;;;26.08;19.25;;;;;;;;;;5079381;28;20059;-88
2021/10/12 00:40:52;;;;;;;26.42;20.20;;;;;;;;;;5079369;28;20441;-88
2021/10/12 00:43:25;;;;;;;27.17;20.20;;;;;;;;;;5080558;28;20346;-88
2021/10/12 00:45:51;;;;;;;28.75;20.90;;;;;;;;;;5079353;28;20111;-87
2021/10/12 00:48:17;;;;;;;29.20;21.55;;;;;;;;;;5080699;28;20045;-87
2021/10/12 00:50:43;;;;;;;29.75;21.92;;;;;;;;;;5079980;28;20028;-86
2021/10/12 00:53:09;;;;;;;32.13;22.08;;;;;;;;;;5079277;28;20033;-86
2021/10/12 00:55:35;;;;;;;28.92;21.00;;;;;;;;;;5078966;28;20031;-87
2021/10/12 00:58:02;;;;;;;28.27;20.98;;;;;;;;;;5078935;28;20144;-87
2021/10/12 01:00:28;;;;;;;30.60;21.05;;;;;;;;;;5078966;28;20066;-87
2021/10/12 01:02:54;;;;;;;30.90;21.80;;;;;;;;;;5080091;28;20017;-87
2021/10/12 01:05:20;;;;;;;32.35;20.77;;;;;;;;;;5080553;28;20096;-87
2021/10/12 01:10:49;;;;;;;33.78;21.48;;;;;;;;;;5079722;28;20044;-88
2021/10/12 01:13:16;;;;;;;27.63;20.08;;;;;;;;;;5078682;28;20349;-87
2021/10/12 01:15:42;;;;;;;26.80;20.27;;;;;;;;;;5080020;28;20081;-87
2021/10/12 01:18:12;;;;;;;29.90;20.75;;;;;;;;;;5079548;28;20021;-87
2021/10/12 01:20:39;;;;;;;29.98;20.48;;;;;;;;;;5079920;28;20162;-88
2021/10/12 01:26:27;;;;;;;29.73;20.75;;;;;;;;;;5079400;28;20069;-87
2021/10/12 01:28:53;;;;;;;26.75;19.48;;;;;;;;;;5079270;28;20048;-86
2021/10/12 01:31:26;;;;;;;29.58;20.10;;;;;;;;;;5079509;28;20024;-87
2021/10/12 01:33:52;;;;;;;26.95;19.42;;;;;;;;;;5078312;28;20028;-87
2021/10/12 01:36:18;;;;;;;26.17;19.38;;;;;;;;;;5078334;28;20436;-87
2021/10/12 01:38:44;;;;;;;28.95;19.67;;;;;;;;;;5079381;28;20025;-87
2021/10/12 01:41:11;;;;;;;29.52;20.30;;;;;;;;;;5079124;28;20025;-88
2021/10/12 01:43:38;;;;;;;26.92;20.13;;;;;;;;;;5078374;28;20115;-87
2021/10/12 01:46:05;;;;;;;30.40;20.95;;;;;;;;;;5079395;28;20017;-87
2021/10/12 01:48:31;;;;;;;31.30;21.90;;;;;;;;;;5078257;28;20437;-86
2021/10/12 01:50:57;;;;;;;33.75;21.75;;;;;;;;;;5078084;28;20024;-87
2021/10/12 01:53:23;;;;;;;32.13;21.77;;;;;;;;;;5079037;28;20021;-87
2021/10/12 01:55:49;;;;;;;35.38;22.73;;;;;;;;;;5079180;28;20031;-87
2021/10/12 01:58:15;;;;;;;31.48;22.80;;;;;;;;;;5078653;28;20028;-90
2021/10/12 02:00:41;;;;;;;41.88;24.88;;;;;;;;;;5079551;28;20031;-92
2021/10/12 02:03:08;;;;;;;35.90;25.08;;;;;;;;;;5079822;28;20095;-91
2021/10/12 02:05:34;;;;;;;38.95;25.48;;;;;;;;;;5079848;28;20024;-91
2021/10/12 02:11:04;;;;;;;46.70;27.65;;;;;;;;;;5080042;28;20492;-91
2021/10/12 02:13:30;;;;;;;44.13;29.10;;;;;;;;;;5079882;28;20353;-91
2021/10/12 02:15:56;;;;;;;51.25;31.27;;;;;;;;;;5079851;28;20044;-91
2021/10/12 02:18:23;;;;;;;59.00;34.40;;;;;;;;;;5079160;28;20115;-91
2021/10/12 02:20:49;;;;;;;55.42;34.08;;;;;;;;;;5077617;28;20318;-90
2021/10/12 02:26:19;;;;;;;49.83;32.13;;;;;;;;;;5078497;28;20023;-90
2021/10/12 02:28:45;;;;;;;52.80;32.35;;;;;;;;;;5077886;28;20041;-90
2021/10/12 02:31:11;;;;;;;49.15;32.40;;;;;;;;;;5078337;28;20028;-89
2021/10/12 02:33:37;;;;;;;50.05;32.75;;;;;;;;;;5077433;28;20031;-87
2021/10/12 02:36:03;;;;;;;50.28;32.33;;;;;;;;;;5078033;28;20021;-87
2021/10/12 02:38:29;;;;;;;50.50;32.65;;;;;;;;;;5077909;28;20029;-87
2021/10/12 02:40:56;;;;;;;48.80;33.17;;;;;;;;;;5078109;28;20055;-88
2021/10/12 02:43:22;;;;;;;52.13;34.00;;;;;;;;;;5078235;28;20036;-88
2021/10/12 02:45:48;;;;;;;52.85;33.97;;;;;;;;;;5077971;28;20031;-87
2021/10/12 02:48:14;;;;;;;48.65;34.53;;;;;;;;;;5078191;28;20029;-87
2021/10/12 02:50:42;;;;;;;49.70;34.58;;;;;;;;;;5077956;28;20323;-87
2021/10/12 02:53:09;;;;;;;52.92;34.35;;;;;;;;;;5078265;28;20024;-87
2021/10/12 02:55:35;;;;;;;49.88;33.78;;;;;;;;;;5078084;28;20415;-87
2021/10/12 02:58:01;;;;;;;51.40;34.35;;;;;;;;;;5076900;28;20082;-87
2021/10/12 03:00:27;;;;;;;53.53;33.58;;;;;;;;;;5078082;28;20016;-89
2021/10/12 03:02:53;;;;;;;56.25;35.60;;;;;;;;;;5078017;28;20306;-89
2021/10/12 03:05:19;;;;;;;52.58;34.70;;;;;;;;;;5076804;28;20020;-88
2021/10/12 03:07:45;;;;;;;55.67;35.72;;;;;;;;;;5077960;28;20028;-86
2021/10/12 03:10:13;;;;;;;55.83;35.63;;;;;;;;;;5077453;28;20035;-87
2021/10/12 03:12:39;;;;;;;47.05;32.15;;;;;;;;;;5077620;28;20028;-86
2021/10/12 03:15:06;;;;;;;54.58;36.70;;;;;;;;;;5077580;28;20070;-86
2021/10/12 03:17:32;;;;;;;53.25;35.67;;;;;;;;;;5076613;28;20028;-87
2021/10/12 03:19:58;;;;;;;55.38;36.95;;;;;;;;;;5076507;28;20035;-87
2021/10/12 03:25:28;;;;;;;53.72;36.35;;;;;;;;;;5077634;28;20437;-87
2021/10/12 03:27:54;;;;;;;54.42;35.45;;;;;;;;;;5077163;28;20057;-87
2021/10/12 03:30:20;;;;;;;54.88;37.50;;;;;;;;;;5076402;28;20029;-86
2021/10/12 03:32:46;;;;;;;55.78;36.03;;;;;;;;;;5077458;28;20101;-87
2021/10/12 03:35:15;;;;;;;52.90;35.67;;;;;;;;;;5080165;28;20035;-87
2021/10/12 03:38:00;;;;;;;54.13;38.38;;;;;;;;;;5081414;28;20028;-87
2021/10/12 03:40:26;;;;;;;54.92;35.75;;;;;;;;;;5081543;28;20048;-86
2021/10/12 03:42:52;;;;;;;51.15;34.65;;;;;;;;;;5081469;28;20062;-87
2021/10/12 03:45:19;;;;;;;51.22;33.83;;;;;;;;;;5081301;28;20013;-86
2021/10/12 03:47:45;;;;;;;56.28;35.80;;;;;;;;;;5081355;28;20024;-88
2021/10/12 03:50:11;;;;;;;50.58;34.15;;;;;;;;;;5081174;28;20052;-88
2021/10/12 03:52:37;;;;;;;50.78;34.03;;;;;;;;;;5080288;28;20024;-87
2021/10/12 03:55:04;;;;;;;50.70;34.05;;;;;;;;;;5081296;28;20092;-88
2021/10/12 03:57:30;;;;;;;52.20;32.67;;;;;;;;;;5081150;28;20039;-88
2021/10/12 03:59:56;;;;;;;51.85;33.85;;;;;;;;;;5081033;28;20402;-89
2021/10/12 04:02:22;;;;;;;51.97;34.00;;;;;;;;;;5080200;28;20025;-88
2021/10/12 04:04:48;;;;;;;48.95;34.22;;;;;;;;;;5080945;28;20112;-87
2021/10/12 04:07:33;;;;;;;52.03;33.88;;;;;;;;;;5081289;28;20031;-87
2021/10/12 04:09:59;;;;;;;48.72;31.67;;;;;;;;;;5080788;28;20025;-87
2021/10/12 04:12:25;;;;;;;55.25;36.53;;;;;;;;;;5081219;28;20056;-87
2021/10/12 04:14:51;;;;;;;47.63;32.80;;;;;;;;;;5081190;28;20050;-88
2021/10/12 04:17:17;;;;;;;50.28;32.95;;;;;;;;;;5080853;28;20028;-87
2021/10/12 04:19:43;;;;;;;48.03;33.78;;;;;;;;;;5079775;28;20039;-88
2021/10/12 04:22:09;;;;;;;48.35;31.88;;;;;;;;;;5080891;28;20137;-87
2021/10/12 04:24:36;;;;;;;49.03;32.88;;;;;;;;;;5080896;28;20031;-89
2021/10/12 04:27:04;;;;;;;43.95;30.77;;;;;;;;;;5079491;28;20312;-88
2021/10/12 04:29:30;;;;;;;46.08;30.92;;;;;;;;;;5080505;28;20025;-89
2021/10/12 04:31:56;;;;;;;43.90;29.77;;;;;;;;;;5079509;28;20479;-89
2021/10/12 04:34:22;;;;;;;41.80;30.25;;;;;;;;;;5079752;28;20025;-89
2021/10/12 04:36:48;;;;;;;47.10;30.50;;;;;;;;;;5079514;28;20108;-88
2021/10/12 04:39:14;;;;;;;45.10;31.48;;;;;;;;;;5079464;28;20322;-88
2021/10/12 04:41:41;;;;;;;49.05;31.48;;;;;;;;;;5077736;28;20177;-86
2021/10/12 04:44:11;;;;;;;49.25;31.55;;;;;;;;;;5059762;28;20017;-86
2021/10/12 04:46:40;;;;;;;51.78;31.50;;;;;;;;;;5072889;28;20025;-86
2021/10/12 04:49:06;;;;;;;44.58;30.77;;;;;;;;;;5079349;28;20110;-87
2021/10/12 04:51:33;;;;;;;46.60;32.17;;;;;;;;;;5079215;28;20025;-87
2021/10/12 04:53:59;;;;;;;61.67;35.97;;;;;;;;;;5079986;28;20292;-87
2021/10/12 04:56:26;;;;;;;55.25;34.67;;;;;;;;;;5072897;28;20061;-87
2021/10/12 04:58:52;;;;;;;58.17;35.22;;;;;;;;;;5066159;28;20048;-87
2021/10/12 05:01:18;;;;;;;57.85;37.75;;;;;;;;;;5079228;28;20075;-88
2021/10/12 05:03:44;;;;;;;59.67;36.08;;;;;;;;;;5080020;28;20025;-89
2021/10/12 05:06:10;;;;;;;53.58;34.97;;;;;;;;;;5074452;28;20021;-88
2021/10/12 05:08:55;;;;;;;54.13;34.00;;;;;;;;;;5059702;28;20028;-88
2021/10/12 05:11:21;;;;;;;48.58;32.38;;;;;;;;;;5060419;28;20028;-86
2021/10/12 05:13:49;;;;;;;43.08;30.55;;;;;;;;;;5059396;28;20419;-88
2021/10/12 05:16:16;;;;;;;46.95;31.15;;;;;;;;;;5068755;28;20028;-88
2021/10/12 05:18:43;;;;;;;42.95;30.48;;;;;;;;;;5059878;28;20111;-88
2021/10/12 05:21:09;;;;;;;47.63;28.50;;;;;;;;;;5075269;28;20020;-88
2021/10/12 05:26:38;;;;;;;42.83;28.85;;;;;;;;;;5070648;28;20047;-85
2021/10/12 05:29:05;;;;;;;41.30;27.85;;;;;;;;;;5058553;28;20029;-86
2021/10/12 05:31:31;;;;;;;38.75;27.70;;;;;;;;;;5061121;28;20059;-85
2021/10/12 05:33:57;;;;;;;38.28;27.08;;;;;;;;;;5068247;28;20025;-85
2021/10/12 05:36:23;;;;;;;40.00;27.23;;;;;;;;;;5059562;28;20032;-85
2021/10/12 05:38:49;;;;;;;36.55;26.30;;;;;;;;;;5059403;28;20025;-87
2021/10/12 05:41:15;;;;;;;41.28;27.63;;;;;;;;;;5059145;28;20047;-86
2021/10/12 05:43:41;;;;;;;39.75;25.85;;;;;;;;;;5078260;28;20032;-84
2021/10/12 05:46:08;;;;;;;40.65;26.15;;;;;;;;;;5079022;28;20033;-85
2021/10/12 06:00:51;;;;;;;37.50;26.25;;;;;;;;;;5107943;27;20375;-86
2021/10/12 06:03:17;;;;;;;39.90;28.45;;;;;;;;;;5074702;28;20039;-86
2021/10/12 06:05:43;;;;;;;76.72;58.95;;;;;;;;;;5074632;28;20017;-86
2021/10/12 06:08:10;;;;;;;114.50;90.70;;;;;;;;;;5074431;28;20021;-86
2021/10/12 06:10:37;;;;;;;132.23;105.95;;;;;;;;;;5074696;28;20036;-85
2021/10/12 06:13:09;;;;;;;151.00;121.10;;;;;;;;;;5074737;28;20017;-86
2021/10/12 06:15:35;;;;;;;124.35;106.78;;;;;;;;;;5074378;28;20314;-86
2021/10/12 06:18:01;;;;;;;76.60;63.45;;;;;;;;;;5074376;28;20032;-86
2021/10/12 06:20:27;;;;;;;62.88;51.75;;;;;;;;;;5074396;28;20027;-86
2021/10/12 06:22:53;;;;;;;51.75;42.28;;;;;;;;;;5074266;28;20124;-86
2021/10/12 06:25:19;;;;;;;49.42;38.53;;;;;;;;;;5074751;28;20028;-86
2021/10/12 06:27:45;;;;;;;49.10;36.13;;;;;;;;;;5073872;28;20135;-85
2021/10/12 06:30:12;;;;;;;47.15;34.05;;;;;;;;;;5074219;28;20036;-86
2021/10/12 06:32:38;;;;;;;42.85;30.38;;;;;;;;;;5056441;28;20032;-85
2021/10/12 06:35:05;;;;;;;43.25;30.13;;;;;;;;;;5073983;28;20021;-85
2021/10/12 06:37:31;;;;;;;45.15;31.15;;;;;;;;;;5073980;28;20024;-85
2021/10/12 06:39:57;;;;;;;45.55;31.80;;;;;;;;;;5074070;28;20021;-84
2021/10/12 06:42:24;;;;;;;41.95;29.92;;;;;;;;;;5073749;28;20029;-85
2021/10/12 06:44:50;;;;;;;42.70;29.80;;;;;;;;;;5073067;28;20029;-84
2021/10/12 06:47:16;;;;;;;45.15;29.92;;;;;;;;;;5073882;28;20089;-85
2021/10/12 06:49:42;;;;;;;46.78;31.23;;;;;;;;;;5072482;28;20064;-85
2021/10/12 06:52:08;;;;;;;46.47;29.67;;;;;;;;;;5073630;28;20027;-84
2021/10/12 06:54:34;;;;;;;61.13;32.22;;;;;;;;;;5073717;28;20012;-84
2021/10/12 06:57:01;;;;;;;67.53;35.03;;;;;;;;;;5073709;28;20044;-84
2021/10/12 06:59:28;;;;;;;71.18;36.08;;;;;;;;;;5073246;28;20060;-84
2021/10/12 07:01:54;;;;;;;76.32;35.92;;;;;;;;;;5059638;28;20147;-84
2021/10/12 07:04:21;;;;;;;54.85;32.45;;;;;;;;;;5060581;28;20435;-84
2021/10/12 07:06:47;;;;;;;54.83;31.98;;;;;;;;;;5060043;28;20358;-84
2021/10/12 07:09:16;;;;;;;53.70;30.88;;;;;;;;;;5059895;28;20303;-84
2021/10/12 07:11:42;;;;;;;44.25;28.10;;;;;;;;;;5059267;28;20033;-84
2021/10/12 07:14:08;;;;;;;41.13;26.35;;;;;;;;;;5060189;28;20063;-84
2021/10/12 07:47:10;;;;;;;36.97;23.80;;;;;;;;;;5059442;28;20112;-85
2021/10/12 07:49:56;;;;;;;33.38;22.27;;;;;;;;;;5059554;28;20099;-85
2021/10/12 07:52:22;;;;;;;34.80;24.25;;;;;;;;;;5058277;28;20082;-85
2021/10/12 07:54:51;;;;;;;31.67;21.52;;;;;;;;;;5059242;28;20021;-85
2021/10/12 07:57:18;;;;;;;30.02;20.92;;;;;;;;;;5058554;28;20415;-85
2021/10/12 07:59:45;;;;;;;30.98;21.05;;;;;;;;;;5059070;28;20068;-85
2021/10/12 08:02:12;;;;;;;33.15;22.58;;;;;;;;;;5058980;28;20025;-85
2021/10/12 08:05:02;;;;;;;39.13;25.00;;;;;;;;;;5046526;28;20028;-85
2021/10/12 08:07:28;;;;;;;33.10;22.23;;;;;;;;;;5045954;28;20029;-86
2021/10/12 08:09:56;;;;;;;32.80;22.30;;;;;;;;;;5050037;28;20391;-85
2021/10/12 08:12:23;;;;;;;35.00;23.35;;;;;;;;;;5039555;28;20474;-85
2021/10/12 08:14:54;;;;;;;35.05;21.55;;;;;;;;;;5039010;28;20319;-85
2021/10/12 08:17:20;;;;;;;30.08;21.15;;;;;;;;;;5038771;28;20026;-86
2021/10/12 08:22:49;;;;;;;32.38;22.75;;;;;;;;;;5038754;28;20041;-85
2021/10/12 08:25:15;;;;;;;31.70;21.35;;;;;;;;;;5038791;28;20470;-85
2021/10/12 08:27:42;;;;;;;31.70;20.88;;;;;;;;;;5038004;28;20168;-85
2021/10/12 08:30:11;;;;;;;28.48;20.98;;;;;;;;;;5037923;28;20084;-87
2021/10/12 08:32:37;;;;;;;36.58;21.48;;;;;;;;;;5037801;28;20023;-85
2021/10/12 08:35:04;;;;;;;31.23;22.95;;;;;;;;;;5038364;28;20025;-85
2021/10/12 08:37:30;;;;;;;35.25;23.80;;;;;;;;;;5037581;28;20347;-85
2021/10/12 08:39:56;;;;;;;36.83;24.48;;;;;;;;;;5038652;28;20049;-85
2021/10/12 08:42:22;;;;;;;73.50;31.58;;;;;;;;;;5037424;28;20379;-85
2021/10/12 08:44:50;;;;;;;52.05;28.35;;;;;;;;;;5038406;28;20030;-85
2021/10/12 08:47:16;;;;;;;43.22;27.08;;;;;;;;;;5037507;28;20053;-84
2021/10/12 08:49:43;;;;;;;40.55;27.98;;;;;;;;;;5038198;28;20036;-85
2021/10/12 08:52:09;;;;;;;35.05;24.25;;;;;;;;;;5040826;28;20036;-84
2021/10/12 08:54:35;;;;;;;37.97;25.52;;;;;;;;;;5042445;28;20076;-85
2021/10/12 08:57:01;;;;;;;36.53;25.02;;;;;;;;;;5037180;28;20135;-85
2021/10/12 08:59:27;;;;;;;48.92;28.73;;;;;;;;;;5037772;28;20049;-85
2021/10/12 09:02:05;;;;;;;42.30;27.27;;;;;;;;;;5038023;28;20025;-84
2021/10/12 09:04:38;;;;;;;49.58;29.63;;;;;;;;;;5037976;28;20034;-84
2021/10/12 09:07:05;;;;;;;41.95;26.80;;;;;;;;;;5048969;28;20032;-85
2021/10/12 09:09:35;;;;;;;34.28;25.05;;;;;;;;;;5048379;28;20459;-85
2021/10/12 09:12:01;;;;;;;38.05;25.55;;;;;;;;;;5045917;28;20100;-85
2021/10/12 09:14:28;;;;;;;46.42;29.17;;;;;;;;;;5045542;28;20114;-85
2021/10/12 09:17:02;;;;;;;38.80;25.88;;;;;;;;;;5043367;28;20415;-84
2021/10/12 09:19:31;;;;;;;38.83;26.48;;;;;;;;;;5037146;28;20128;-85
2021/10/12 09:21:58;;;;;;;39.50;28.58;;;;;;;;;;5037759;28;20091;-84
2021/10/12 09:24:25;;;;;;;42.28;30.58;;;;;;;;;;5036495;28;20419;-84
2021/10/12 09:27:02;;;;;;;39.25;27.35;;;;;;;;;;5037020;28;20049;-85
2021/10/12 09:29:39;;;;;;;36.78;25.67;;;;;;;;;;5037915;28;20438;-85
2021/10/12 09:32:06;;;;;;;37.20;26.15;;;;;;;;;;5037718;28;20033;-84
2021/10/12 09:34:33;;;;;;;36.20;26.20;;;;;;;;;;5037568;28;20017;-85
2021/10/12 09:36:59;;;;;;;36.45;24.40;;;;;;;;;;5037534;28;20052;-85
2021/10/12 09:39:37;;;;;;;33.75;25.02;;;;;;;;;;5037327;28;20032;-85
2021/10/12 09:42:10;;;;;;;43.20;29.00;;;;;;;;;;5037679;28;20030;-85
2021/10/12 09:44:37;;;;;;;38.78;25.67;;;;;;;;;;5036545;28;20304;-86
2021/10/12 09:47:06;;;;;;;38.72;28.52;;;;;;;;;;5037794;28;20101;-85
2021/10/12 09:49:32;;;;;;;41.70;28.30;;;;;;;;;;5037433;28;20029;-79
2021/10/12 09:52:04;;;;;;;41.25;28.60;;;;;;;;;;5037433;28;20017;-86
2021/10/12 09:54:31;;;;;;;39.07;28.27;;;;;;;;;;5037450;28;20022;-85
2021/10/12 09:56:58;;;;;;;45.80;31.27;;;;;;;;;;5037453;28;20041;-85
2021/10/12 09:59:24;;;;;;;43.20;30.98;;;;;;;;;;5037259;28;20071;-85
2021/10/12 10:01:52;;;;;;;60.97;34.65;;;;;;;;;;5037534;28;20030;-85
2021/10/12 10:04:19;;;;;;;56.13;34.50;;;;;;;;;;5037439;28;20030;-85
2021/10/12 10:06:47;;;;;;;49.78;32.65;;;;;;;;;;5037345;28;20109;-85
2021/10/12 10:09:14;;;;;;;43.25;29.98;;;;;;;;;;5036442;28;20057;-85
2021/10/12 10:11:42;;;;;;;47.03;29.77;;;;;;;;;;5037274;28;20057;-85
2021/10/12 10:14:09;;;;;;;42.45;28.38;;;;;;;;;;5036251;28;20029;-85
2021/10/12 10:16:37;;;;;;;51.50;37.83;;;;;;;;;;5037576;28;20021;-85
2021/10/12 10:19:03;;;;;;;68.28;45.25;;;;;;;;;;5037391;28;20021;-85
2021/10/12 10:21:29;;;;;;;41.83;26.83;;;;;;;;;;5037093;28;20034;-85
2021/10/12 10:23:58;;;;;;;71.20;44.65;;;;;;;;;;5036061;28;20025;-85
2021/10/12 10:26:27;;;;;;;93.30;56.53;;;;;;;;;;5037106;28;20030;-84
2021/10/12 10:28:55;;;;;;;78.55;48.53;;;;;;;;;;5036184;28;20046;-84
2021/10/12 10:31:52;;;;;;;60.45;38.83;;;;;;;;;;5036045;28;20104;-84
2021/10/12 10:34:27;;;;;;;46.22;31.65;;;;;;;;;;5055194;28;20067;-84
2021/10/12 10:37:12;;;;;;;44.75;33.20;;;;;;;;;;5041440;28;20415;-85
2021/10/12 10:39:38;;;;;;;38.50;26.42;;;;;;;;;;5042147;28;20033;-84
2021/10/12 10:42:05;;;;;;;42.92;29.10;;;;;;;;;;5042139;28;20323;-84
2021/10/12 10:44:53;;;;;;;34.38;24.67;;;;;;;;;;5058966;28;20037;-85
2021/10/12 10:47:38;;;;;;;37.65;24.85;;;;;;;;;;5058707;28;20029;-85
2021/10/12 10:50:15;;;;;;;32.25;23.90;;;;;;;;;;5058516;28;20052;-84
2021/10/12 10:52:42;;;;;;;35.85;23.80;;;;;;;;;;5058652;28;20044;-85
2021/10/12 10:55:09;;;;;;;35.42;23.60;;;;;;;;;;5058725;28;20036;-85
2021/10/12 10:57:35;;;;;;;30.45;22.80;;;;;;;;;;5058434;28;20168;-85
2021/10/12 11:00:13;;;;;;;29.17;20.95;;;;;;;;;;5041488;28;20351;-85
2021/10/12 11:02:39;;;;;;;34.72;24.35;;;;;;;;;;5058528;28;20104;-86
2021/10/12 11:05:05;;;;;;;26.67;18.58;;;;;;;;;;5058622;28;20036;-86
2021/10/12 11:07:31;;;;;;;27.98;20.48;;;;;;;;;;5042031;28;20029;-86
2021/10/12 11:09:58;;;;;;;30.42;20.33;;;;;;;;;;5054562;28;20040;-87
2021/10/12 11:12:24;;;;;;;31.27;20.88;;;;;;;;;;5039590;28;20323;-86
2021/10/12 11:14:51;;;;;;;27.73;19.10;;;;;;;;;;5039264;28;20400;-85
2021/10/12 11:17:17;;;;;;;25.02;18.90;;;;;;;;;;5040034;28;20029;-86
2021/10/12 11:19:56;;;;;;;31.02;19.80;;;;;;;;;;5051796;28;20033;-86
2021/10/12 11:22:23;;;;;;;24.83;18.50;;;;;;;;;;5060045;28;20029;-86
2021/10/12 11:24:49;;;;;;;28.38;19.13;;;;;;;;;;5060034;28;20021;-87
2021/10/12 11:27:16;;;;;;;22.98;17.35;;;;;;;;;;5050649;28;20411;-86
2021/10/12 11:29:43;;;;;;;23.33;15.80;;;;;;;;;;5040234;28;20041;-87
2021/10/12 11:32:09;;;;;;;24.48;17.73;;;;;;;;;;5041438;28;20026;-86
2021/10/12 11:34:53;;;;;;;26.25;18.13;;;;;;;;;;5039578;28;20072;-86
2021/10/12 11:37:19;;;;;;;24.30;17.38;;;;;;;;;;5039212;28;20045;-86
2021/10/12 11:39:45;;;;;;;26.92;18.55;;;;;;;;;;5040784;28;20036;-86
2021/10/12 11:42:11;;;;;;;24.83;18.55;;;;;;;;;;5050013;28;20071;-85
2021/10/12 11:44:37;;;;;;;25.55;18.73;;;;;;;;;;5054199;28;20056;-86
2021/10/12 11:47:03;;;;;;;26.70;18.45;;;;;;;;;;5059087;28;20032;-86
2021/10/12 11:49:36;;;;;;;25.30;18.50;;;;;;;;;;5058914;28;20033;-86
2021/10/12 11:52:07;;;;;;;26.08;17.80;;;;;;;;;;5055812;28;20032;-86
2021/10/12 11:54:33;;;;;;;26.15;18.60;;;;;;;;;;5057851;28;20029;-86
2021/10/12 11:57:00;;;;;;;28.80;19.42;;;;;;;;;;5038914;28;20426;-85
2021/10/12 11:59:29;;;;;;;32.13;19.55;;;;;;;;;;5041120;28;20070;-85
2021/10/12 12:01:55;;;;;;;33.38;21.80;;;;;;;;;;5050922;28;20037;-86
2021/10/12 12:10:29;;;;;;;36.92;24.85;;;;;;;;;;5049762;28;20091;-86
2021/10/12 12:12:55;;;;;;;38.60;25.17;;;;;;;;;;5049757;28;20021;-86
2021/10/12 12:15:21;;;;;;;33.60;24.55;;;;;;;;;;5058207;28;20024;-86
2021/10/12 12:17:47;;;;;;;37.83;26.67;;;;;;;;;;5058121;28;20025;-86
2021/10/12 12:20:14;;;;;;;34.40;24.98;;;;;;;;;;5059066;28;20028;-86
2021/10/12 12:22:43;;;;;;;34.33;24.35;;;;;;;;;;5058972;28;20037;-87
2021/10/12 12:25:11;;;;;;;33.33;23.92;;;;;;;;;;5057890;28;20040;-86
2021/10/12 12:27:55;;;;;;;32.35;24.50;;;;;;;;;;5053703;28;20030;-86
2021/10/12 12:30:31;;;;;;;37.28;25.25;;;;;;;;;;5056173;28;20094;-86
2021/10/12 12:32:58;;;;;;;38.55;26.90;;;;;;;;;;5045553;28;20042;-86
2021/10/12 12:35:27;;;;;;;35.45;25.08;;;;;;;;;;5038458;28;20037;-86
2021/10/12 12:37:57;;;;;;;35.85;25.45;;;;;;;;;;5037576;28;20104;-86
2021/10/12 12:40:28;;;;;;;39.05;25.42;;;;;;;;;;5038645;28;20025;-86
2021/10/12 12:42:54;;;;;;;37.83;24.63;;;;;;;;;;5038499;28;20036;-86
2021/10/12 12:45:22;;;;;;;33.33;22.42;;;;;;;;;;5037535;28;20029;-83
2021/10/12 12:47:56;;;;;;;35.38;24.48;;;;;;;;;;5037618;28;20132;-89
2021/10/12 12:50:24;;;;;;;33.70;22.98;;;;;;;;;;5038347;28;20113;-80
2021/10/12 12:52:50;;;;;;;36.25;23.33;;;;;;;;;;5038035;28;20029;-85
2021/10/12 12:55:31;;;;;;;37.22;24.42;;;;;;;;;;5038349;28;20412;-88
2021/10/12 12:57:57;;;;;;;36.63;24.85;;;;;;;;;;5037731;28;20040;-87
2021/10/12 13:00:23;;;;;;;34.35;25.40;;;;;;;;;;5038014;28;20049;-87
2021/10/12 13:02:56;;;;;;;35.63;25.33;;;;;;;;;;5037491;28;20037;-88
2021/10/12 13:05:23;;;;;;;38.67;25.85;;;;;;;;;;5038107;28;20411;-85
2021/10/12 13:07:52;;;;;;;33.78;25.15;;;;;;;;;;5038071;28;20034;-87
2021/10/12 13:10:19;;;;;;;33.95;23.25;;;;;;;;;;5038024;28;20060;-87
2021/10/12 13:12:46;;;;;;;33.72;25.10;;;;;;;;;;5038218;28;20025;-87
2021/10/12 13:15:12;;;;;;;41.75;25.15;;;;;;;;;;5038135;28;20362;-87
2021/10/12 13:17:38;;;;;;;42.30;26.15;;;;;;;;;;5038086;28;20466;-88
2021/10/12 13:20:05;;;;;;;35.03;25.02;;;;;;;;;;5036952;28;20021;-87
2021/10/12 13:22:31;;;;;;;38.65;24.27;;;;;;;;;;5037018;28;20037;-86
2021/10/12 13:24:57;;;;;;;36.33;23.67;;;;;;;;;;5037092;28;20110;-86
2021/10/12 13:27:23;;;;;;;38.00;24.42;;;;;;;;;;5037937;28;20029;-87
2021/10/12 13:29:49;;;;;;;40.95;25.95;;;;;;;;;;5038062;28;20044;-86
2021/10/12 13:32:17;;;;;;;35.20;24.45;;;;;;;;;;5038057;28;20025;-87
2021/10/12 13:34:44;;;;;;;41.33;24.80;;;;;;;;;;5037808;28;20032;-86
2021/10/12 13:37:10;;;;;;;38.40;24.52;;;;;;;;;;5037963;28;20021;-87
2021/10/12 13:39:36;;;;;;;37.65;26.88;;;;;;;;;;5037394;28;20120;-87
2021/10/12 13:42:03;;;;;;;33.28;24.73;;;;;;;;;;5046474;28;20029;-86
2021/10/12 13:44:29;;;;;;;40.42;26.35;;;;;;;;;;5037895;28;20380;-87
2021/10/12 13:46:55;;;;;;;36.25;25.52;;;;;;;;;;5037921;28;20021;-88
2021/10/12 13:49:30;;;;;;;37.42;26.25;;;;;;;;;;5037504;28;20036;-81
2021/10/12 13:51:56;;;;;;;43.55;27.65;;;;;;;;;;5037368;28;20025;-88
2021/10/12 13:54:24;;;;;;;39.30;25.58;;;;;;;;;;5037149;28;20079;-86
2021/10/12 13:56:50;;;;;;;43.88;30.83;;;;;;;;;;5048132;28;20068;-89
2021/10/12 13:59:17;;;;;;;55.70;33.92;;;;;;;;;;5056124;28;20056;-87
2021/10/12 14:01:43;;;;;;;60.03;32.08;;;;;;;;;;5057180;28;20025;-87
2021/10/12 14:04:09;;;;;;;50.28;30.70;;;;;;;;;;5057019;28;20064;-87
2021/10/12 14:06:35;;;;;;;46.35;27.63;;;;;;;;;;5057295;28;20025;-86
2021/10/12 14:09:01;;;;;;;36.90;26.10;;;;;;;;;;5056301;28;20140;-87
2021/10/12 14:11:27;;;;;;;36.90;24.38;;;;;;;;;;5059899;28;20021;-87
2021/10/12 14:13:53;;;;;;;40.78;26.90;;;;;;;;;;5061135;28;20025;-87
2021/10/12 14:16:19;;;;;;;39.53;26.45;;;;;;;;;;5060926;28;20063;-87
2021/10/12 14:18:45;;;;;;;41.33;27.27;;;;;;;;;;5060527;28;20041;-87
2021/10/12 14:21:11;;;;;;;36.55;24.95;;;;;;;;;;5061486;28;20029;-87
2021/10/12 14:23:38;;;;;;;38.28;26.40;;;;;;;;;;5060087;28;20434;-86
2021/10/12 14:26:05;;;;;;;42.70;26.67;;;;;;;;;;5061563;28;20032;-87
2021/10/12 14:28:31;;;;;;;37.30;26.80;;;;;;;;;;5060880;28;20041;-87
2021/10/12 14:30:57;;;;;;;41.97;26.38;;;;;;;;;;5061366;28;20020;-87
2021/10/12 14:33:24;;;;;;;47.63;27.23;;;;;;;;;;5055601;28;20029;-86
2021/10/12 14:35:55;;;;;;;38.75;27.70;;;;;;;;;;5040750;28;20136;-85
2021/10/12 14:38:21;;;;;;;41.27;26.03;;;;;;;;;;5040701;28;20443;-86
2021/10/12 14:40:47;;;;;;;47.90;28.70;;;;;;;;;;5055457;28;20029;-87
2021/10/12 14:43:13;;;;;;;42.10;28.05;;;;;;;;;;5059880;28;20020;-87
2021/10/12 14:45:39;;;;;;;46.95;27.00;;;;;;;;;;5060984;28;20025;-86
2021/10/12 14:48:06;;;;;;;42.88;26.90;;;;;;;;;;5059911;28;20021;-86
2021/10/12 14:50:32;;;;;;;42.60;27.08;;;;;;;;;;5060159;28;20033;-86
2021/10/12 14:52:58;;;;;;;47.65;29.90;;;;;;;;;;5059554;28;20426;-86
2021/10/12 14:55:24;;;;;;;44.72;30.10;;;;;;;;;;5052459;28;20033;-86
2021/10/12 14:57:50;;;;;;;45.17;29.00;;;;;;;;;;5040794;28;20041;-86
2021/10/12 15:00:17;;;;;;;41.70;28.75;;;;;;;;;;5050334;28;20431;-86
2021/10/12 15:02:43;;;;;;;43.17;29.65;;;;;;;;;;5060115;28;20033;-86
2021/10/12 15:05:10;;;;;;;42.45;31.13;;;;;;;;;;5059449;28;20021;-86
2021/10/12 15:07:36;;;;;;;47.50;31.58;;;;;;;;;;5059404;28;20071;-86
2021/10/12 15:10:04;;;;;;;43.83;30.25;;;;;;;;;;5060540;28;20021;-86
2021/10/12 15:12:31;;;;;;;51.55;30.45;;;;;;;;;;5060589;28;20029;-86
2021/10/12 15:14:57;;;;;;;48.95;32.20;;;;;;;;;;5059304;28;20424;-87
2021/10/12 15:17:25;;;;;;;54.13;32.75;;;;;;;;;;5059133;28;20021;-86
2021/10/12 15:19:53;;;;;;;48.38;31.85;;;;;;;;;;5060027;28;20025;-86
2021/10/12 15:22:19;;;;;;;57.58;33.30;;;;;;;;;;5059873;28;20074;-87
2021/10/12 15:24:46;;;;;;;50.97;34.05;;;;;;;;;;5060264;28;20031;-86
2021/10/12 15:27:12;;;;;;;56.90;35.97;;;;;;;;;;5059838;28;20124;-86
2021/10/12 15:29:38;;;;;;;51.60;35.33;;;;;;;;;;5058619;28;20048;-87